Latest Weather Observations for Inner Beacon

IDQ60801

Issued at 5:02 pm EST Sunday 24 May 2015 (issued every 30 minutes, with the page automatically refreshed every 10 minutes)

About weather observations | Map of weather stations | Latest weather observations for QLD | Other Formats
Station Details ID: 040926 Name: INNER RECIPROCAL MARKER Lat: -27.26 Lon: 153.24 Height: 20.0 m
Data from the previous 72 hours. | See also: Recent months for locations in Queensland
Date/Time
EST
Temp
°C
App
Temp
°C
Dew
Point
Rel
Hum
%
Delta-T
°C
Wind Press
QNH
hPa
Press
MSL
hPa
Rain
since 9 am
mm
Dir
 
Spd
km/h
Gust
km/h
Spd
kts
Gust
kts
24/05:00pm - - - - - SSE 43 52 23 28 - - -
24/04:30pm - - - - - SSE 33 41 18 22 - - -
24/04:00pm - - - - - SSE 37 44 20 24 - - -
24/03:30pm - - - - - SSE 33 44 18 24 - - -
24/03:00pm - - - - - SSE 32 39 17 21 - - -
24/02:30pm - - - - - SSE 32 37 17 20 - - -
24/02:00pm - - - - - SSE 33 39 18 21 - - -
24/01:30pm - - - - - SSE 33 41 18 22 - - -
24/01:00pm - - - - - SSE 33 39 18 21 - - -
24/12:30pm - - - - - SSE 32 39 17 21 - - -
24/12:00pm - - - - - SSE 30 33 16 18 - - -
24/11:30am - - - - - SSE 24 28 13 15 - - -
24/11:00am - - - - - SSE 28 32 15 17 - - -
24/10:30am - - - - - S 22 32 12 17 - - -
24/10:00am - - - - - S 24 28 13 15 - - -
24/09:30am - - - - - SSW 26 30 14 16 - - -
24/09:00am - - - - - S 30 37 16 20 - - -
24/08:30am - - - - - SSW 30 33 16 18 - - -
24/08:00am - - - - - SSW 28 33 15 18 - - -
24/07:30am - - - - - SW 24 26 13 14 - - -
24/07:00am - - - - - SSW 22 28 12 15 - - -
24/06:30am - - - - - S 26 30 14 16 - - -
24/06:00am - - - - - SSW 28 32 15 17 - - -
24/05:30am - - - - - SSW 26 32 14 17 - - -
24/05:00am - - - - - SSW 28 32 15 17 - - -
24/04:30am - - - - - SSW 26 30 14 16 - - -
24/04:00am - - - - - SSW 24 28 13 15 - - -
24/03:30am - - - - - SSW 22 28 12 15 - - -
24/03:00am - - - - - SSW 26 32 14 17 - - -
24/02:30am - - - - - SSW 24 28 13 15 - - -
24/02:00am - - - - - SSW 26 32 14 17 - - -
24/01:30am - - - - - S 26 35 14 19 - - -
24/01:00am - - - - - S 37 44 20 24 - - -
24/12:30am - - - - - S 33 41 18 22 - - -
24/12:00am - - - - - S 32 35 17 19 - - -
 
Date/Time
EST
Temp
°C
App
Temp
°C
Dew
Point
Rel
Hum
%
Delta-T
°C
Wind Press
QNH
hPa
Press
MSL
hPa
Rain
since 9 am
mm
Dir
 
Spd
km/h
Gust
km/h
Spd
kts
Gust
kts
23/11:30pm - - - - - S 30 35 16 19 - - -
23/11:00pm - - - - - S 28 32 15 17 - - -
23/10:30pm - - - - - S 30 35 16 19 - - -
23/10:00pm - - - - - SSW 28 33 15 18 - - -
23/09:30pm - - - - - SSW 30 33 16 18 - - -
23/09:00pm - - - - - SSW 30 33 16 18 - - -
23/08:30pm - - - - - S 32 39 17 21 - - -
23/08:00pm - - - - - S 32 39 17 21 - - -
23/07:30pm - - - - - S 32 37 17 20 - - -
23/07:00pm - - - - - S 33 41 18 22 - - -
23/06:30pm - - - - - S 30 35 16 19 - - -
23/06:00pm - - - - - S 30 35 16 19 - - -
23/05:30pm - - - - - S 28 33 15 18 - - -
23/05:00pm - - - - - S 26 30 14 16 - - -
23/04:30pm - - - - - S 33 39 18 21 - - -
23/04:00pm - - - - - S 39 46 21 25 - - -
23/03:30pm - - - - - SSE 44 54 24 29 - - -
23/03:00pm - - - - - SSE 35 43 19 23 - - -
23/02:30pm - - - - - SSE 44 57 24 31 - - -
23/02:00pm - - - - - SSE 37 46 20 25 - - -
23/01:30pm - - - - - SSE 41 48 22 26 - - -
23/01:00pm - - - - - SSE 48 59 26 32 - - -
23/12:30pm - - - - - SSE 43 52 23 28 - - -
23/12:00pm - - - - - SSE 46 56 25 30 - - -
23/11:30am - - - - - SSE 44 56 24 30 - - -
23/11:00am - - - - - SSE 44 54 24 29 - - -
23/10:30am - - - - - SSE 37 52 20 28 - - -
23/10:25am - - - - - S 28 52 15 28 - - -
23/10:00am - - - - - SSW 26 32 14 17 - - -
23/09:30am - - - - - SSW 26 32 14 17 - - -
23/09:00am - - - - - SSW 28 33 15 18 - - -
23/08:30am - - - - - SSW 28 33 15 18 - - -
23/08:00am - - - - - SSW 30 33 16 18 - - -
23/07:30am - - - - - SSW 32 35 17 19 - - -
23/07:00am - - - - - SSW 30 35 16 19 - - -
23/06:30am - - - - - SSW 32 39 17 21 - - -
23/06:00am - - - - - SSW 33 41 18 22 - - -
23/05:30am - - - - - SSW 33 41 18 22 - - -
23/05:00am - - - - - SW 30 35 16 19 - - -
23/04:30am - - - - - SW 33 37 18 20 - - -
23/04:00am - - - - - SSW 33 39 18 21 - - -
23/03:30am - - - - - SW 33 39 18 21 - - -
23/03:00am - - - - - SSW 32 37 17 20 - - -
23/02:30am - - - - - SW 33 41 18 22 - - -
23/02:00am - - - - - SW 26 33 14 18 - - -
23/01:30am - - - - - SW 28 32 15 17 - - -
23/01:00am - - - - - SW 30 35 16 19 - - -
23/12:30am - - - - - WSW 32 37 17 20 - - -
23/12:00am - - - - - WSW 32 35 17 19 - - -
 
Date/Time
EST
Temp
°C
App
Temp
°C
Dew
Point
Rel
Hum
%
Delta-T
°C
Wind Press
QNH
hPa
Press
MSL
hPa
Rain
since 9 am
mm
Dir
 
Spd
km/h
Gust
km/h
Spd
kts
Gust
kts
22/11:30pm - - - - - WSW 32 35 17 19 - - -
22/11:00pm - - - - - WSW 33 39 18 21 - - -
22/10:30pm - - - - - WSW 32 39 17 21 - - -
22/10:00pm - - - - - WSW 35 39 19 21 - - -
22/09:30pm - - - - - WSW 37 44 20 24 - - -
22/09:00pm - - - - - WSW 33 39 18 21 - - -
22/08:30pm - - - - - WSW 37 46 20 25 - - -
22/08:00pm - - - - - WSW 41 48 22 26 - - -
22/07:30pm - - - - - WSW 33 41 18 22 - - -
22/07:00pm - - - - - WSW 35 41 19 22 - - -
22/06:30pm - - - - - WSW 33 41 18 22 - - -
22/06:00pm - - - - - WSW 35 43 19 23 - - -
22/05:30pm - - - - - W 37 46 20 25 - - -
22/05:00pm - - - - - W 35 39 19 21 - - -
22/04:30pm - - - - - WSW 33 44 18 24 - - -
22/04:00pm - - - - - WSW 39 48 21 26 - - -
22/03:30pm - - - - - WSW 39 50 21 27 - - -
22/03:00pm - - - - - WSW 41 50 22 27 - - -
22/02:30pm - - - - - WSW 44 54 24 29 - - -
22/02:00pm - - - - - W 44 52 24 28 - - -
22/01:30pm - - - - - WSW 43 52 23 28 - - -
22/01:00pm - - - - - W 39 50 21 27 - - -
22/12:30pm - - - - - W 41 52 22 28 - - -
22/12:13pm - - - - - WSW 37 56 20 30 - - -
22/12:00pm - - - - - WSW 33 43 18 23 - - -
22/11:30am - - - - - WSW 35 44 19 24 - - -
22/11:00am - - - - - WSW 43 48 23 26 - - -
22/10:30am - - - - - WSW 41 48 22 26 - - -
22/10:00am - - - - - W 41 50 22 27 - - -
22/09:30am - - - - - WSW 35 43 19 23 - - -
22/09:00am - - - - - W 32 43 17 23 - - -
22/08:30am - - - - - W 30 39 16 21 - - -
22/08:00am - - - - - WSW 20 22 11 12 - - -
22/07:30am - - - - - WSW 20 26 11 14 - - -
22/07:00am - - - - - W 26 33 14 18 - - -
22/06:30am - - - - - WSW 33 37 18 20 - - -
22/06:00am - - - - - W 35 43 19 23 - - -
22/05:30am - - - - - W 35 41 19 22 - - -
22/05:00am - - - - - WSW 28 35 15 19 - - -
22/04:30am - - - - - W 15 22 8 12 - - -
22/04:00am - - - - - WNW 15 19 8 10 - - -
22/03:30am - - - - - WNW 17 20 9 11 - - -
22/03:00am - - - - - NW 15 19 8 10 - - -
22/02:30am - - - - - NW 17 19 9 10 - - -
22/02:00am - - - - - NW 13 17 7 9 - - -
22/01:30am - - - - - NW 15 17 8 9 - - -
22/01:00am - - - - - WNW 15 17 8 9 - - -
22/12:30am - - - - - W 20 24 11 13 - - -
22/12:00am - - - - - SW 20 22 11 12 - - -
 
Date/Time
EST
Temp
°C
App
Temp
°C
Dew
Point
Rel
Hum
%
Delta-T
°C
Wind Press
QNH
hPa
Press
MSL
hPa
Rain
since 9 am
mm
Dir
 
Spd
km/h
Gust
km/h
Spd
kts
Gust
kts
21/11:30pm - - - - - SW 19 22 10 12 - - -
21/11:00pm - - - - - SW 17 20 9 11 - - -
21/10:30pm - - - - - SSW 17 20 9 11 - - -
21/10:00pm - - - - - S 13 17 7 9 - - -
21/09:30pm - - - - - ESE 7 9 4 5 - - -
21/09:00pm - - - - - SE 6 7 3 4 - - -
21/08:30pm - - - - - SSE 6 9 3 5 - - -
21/08:00pm - - - - - SSW 9 9 5 5 - - -
21/07:30pm - - - - - SSW 7 9 4 5 - - -
21/07:00pm - - - - - SSW 17 19 9 10 - - -
21/06:30pm - - - - - SW 19 24 10 13 - - -
21/06:00pm - - - - - SW 26 30 14 16 - - -
21/05:30pm - - - - - SW 22 28 12 15 - - -

Other Formats:

Comma delimited format used in spreadsheet applications
http://www.bom.gov.au/fwo/IDQ60801/IDQ60801.94590.axf

JavaScript Object Notation format (JSON) in row-major order
http://www.bom.gov.au/fwo/IDQ60801/IDQ60801.94590.json